Time,TemperatureF,DewpointF,PressureIn,WindDirection,WindDirectionDegrees,WindSpeedMPH,WindSpeedGustMPH,Humidity,HourlyPrecipIn,Conditions,Clouds,dailyrainin,SoftwareType,DateUTC
2013-05-02 00:01:00,41.2,41.0,30.40,NE,45,0.0,0.0,99,0.00,,,0.00,meteobridge,2013-05-02 04:01:00,
2013-05-02 00:02:00,41.2,41.0,30.40,NE,45,0.0,0.0,99,0.00,,,0.00,meteobridge,2013-05-02 04:02:00,
2013-05-02 00:07:00,41.0,40.8,30.40,NE,45,0.0,0.0,99,0.00,,,0.00,meteobridge,2013-05-02 04:07:00,
2013-05-02 00:13:00,41.0,40.8,30.40,NE,45,0.0,0.0,99,0.00,,,0.00,meteobridge,2013-05-02 04:13:00,
2013-05-02 00:18:00,41.0,40.8,30.40,NE,45,0.0,0.0,99,0.00,,,0.00,meteobridge,2013-05-02 04:18:00,
2013-05-02 00:23:00,41.0,40.8,30.41,NE,45,0.0,0.0,99,0.00,,,0.00,meteobridge,2013-05-02 04:23:00,
2013-05-02 00:28:00,41.0,40.8,30.41,NE,45,0.0,0.0,99,0.00,,,0.00,meteobridge,2013-05-02 04:28:00,
2013-05-02 00:33:00,41.0,40.8,30.41,NE,45,0.0,0.0,99,0.00,,,0.00,meteobridge,2013-05-02 04:33:00,
2013-05-02 00:38:00,40.8,40.6,30.40,NE,45,0.0,0.0,99,0.00,,,0.00,meteobridge,2013-05-02 04:38:00,
2013-05-02 00:44:00,40.8,40.6,30.40,SW,225,0.0,0.0,99,0.00,,,0.00,meteobridge,2013-05-02 04:44:00,
2013-05-02 00:49:00,40.6,40.5,30.41,SW,225,0.0,0.0,99,0.00,,,0.00,meteobridge,2013-05-02 04:49:00,
2013-05-02 00:54:00,40.5,40.3,30.41,SW,225,0.0,0.0,99,0.00,,,0.00,meteobridge,2013-05-02 04:54:00,
2013-05-02 00:59:00,40.3,40.1,30.41,SW,225,0.0,0.0,99,0.00,,,0.00,meteobridge,2013-05-02 04:59:00,
2013-05-02 01:04:00,40.3,40.1,30.40,NE,45,0.0,0.0,99,0.00,,,0.00,meteobridge,2013-05-02 05:04:00,
2013-05-02 01:09:00,40.1,39.9,30.40,NE,45,0.0,0.0,99,0.00,,,0.00,meteobridge,2013-05-02 05:09:00,
2013-05-02 01:15:00,39.9,39.7,30.40,NE,45,0.0,0.0,99,0.00,,,0.00,meteobridge,2013-05-02 05:15:00,
2013-05-02 01:20:00,39.7,39.6,30.40,NE,45,0.0,0.0,99,0.00,,,0.00,meteobridge,2013-05-02 05:20:00,
2013-05-02 01:25:00,39.7,39.6,30.40,NE,45,0.0,0.0,99,0.00,,,0.00,meteobridge,2013-05-02 05:25:00,
2013-05-02 01:30:00,39.4,39.2,30.40,NE,45,0.0,0.0,99,0.00,,,0.00,meteobridge,2013-05-02 05:30:00,
2013-05-02 01:35:00,39.6,39.4,30.40,NE,45,0.0,0.0,99,0.00,,,0.00,meteobridge,2013-05-02 05:35:00,
2013-05-02 01:40:00,39.6,39.4,30.40,NE,45,0.0,0.0,99,0.00,,,0.00,meteobridge,2013-05-02 05:40:00,
2013-05-02 01:45:00,39.4,39.2,30.40,NE,45,0.0,0.0,99,0.00,,,0.00,meteobridge,2013-05-02 05:45:00,
2013-05-02 01:51:00,39.2,39.0,30.39,NE,45,0.0,0.0,99,0.00,,,0.00,meteobridge,2013-05-02 05:51:00,
2013-05-02 01:56:00,39.0,38.8,30.39,NE,45,0.0,0.0,99,0.00,,,0.00,meteobridge,2013-05-02 05:56:00,
2013-05-02 02:01:00,39.0,38.8,30.39,NE,45,0.0,0.0,99,0.00,,,0.00,meteobridge,2013-05-02 06:01:00,
2013-05-02 02:06:00,39.0,38.8,30.39,NE,45,0.0,0.0,99,0.00,,,0.00,meteobridge,2013-05-02 06:06:00,
2013-05-02 02:11:00,38.8,38.7,30.39,SW,225,0.0,0.0,99,0.00,,,0.00,meteobridge,2013-05-02 06:11:00,
2013-05-02 02:16:00,38.8,38.7,30.40,SW,225,0.0,0.0,99,0.00,,,0.00,meteobridge,2013-05-02 06:16:00,
2013-05-02 02:22:00,38.8,38.7,30.39,SW,225,0.0,0.0,99,0.00,,,0.00,meteobridge,2013-05-02 06:22:00,
2013-05-02 02:27:00,38.7,38.5,30.39,SW,225,0.0,0.0,99,0.00,,,0.00,meteobridge,2013-05-02 06:27:00,
2013-05-02 02:32:00,38.5,38.3,30.39,SW,225,0.0,0.0,99,0.00,,,0.00,meteobridge,2013-05-02 06:32:00,
2013-05-02 02:37:00,38.3,38.1,30.39,SW,225,0.0,0.0,99,0.00,,,0.00,meteobridge,2013-05-02 06:37:00,
2013-05-02 02:42:00,38.5,38.3,30.39,SW,225,0.0,0.0,99,0.00,,,0.00,meteobridge,2013-05-02 06:42:00,
2013-05-02 02:47:00,38.5,38.3,30.38,NE,45,0.0,0.0,99,0.00,,,0.00,meteobridge,2013-05-02 06:47:00,
2013-05-02 02:53:00,38.3,38.1,30.38,NE,45,0.0,0.0,99,0.00,,,0.00,meteobridge,2013-05-02 06:53:00,
2013-05-02 02:58:00,38.1,37.9,30.38,NE,45,0.0,0.0,99,0.00,,,0.00,meteobridge,2013-05-02 06:58:00,
2013-05-02 03:03:00,38.3,38.1,30.38,NE,45,0.0,0.0,99,0.00,,,0.00,meteobridge,2013-05-02 07:03:00,
2013-05-02 03:08:00,38.1,37.9,30.38,NE,45,0.0,0.0,99,0.00,,,0.00,meteobridge,2013-05-02 07:08:00,
2013-05-02 03:13:00,38.1,37.9,30.38,South,180,0.0,0.0,99,0.00,,,0.00,meteobridge,2013-05-02 07:13:00,
2013-05-02 03:18:00,38.1,37.9,30.37,South,180,0.0,0.0,99,0.00,,,0.00,meteobridge,2013-05-02 07:18:00,
2013-05-02 03:24:00,38.1,37.9,30.37,South,180,0.0,0.0,99,0.00,,,0.00,meteobridge,2013-05-02 07:24:00,
2013-05-02 03:29:00,38.3,38.1,30.37,South,180,0.0,0.0,99,0.00,,,0.00,meteobridge,2013-05-02 07:29:00,
2013-05-02 03:34:00,38.5,38.3,30.37,SW,225,1.6,1.6,99,0.00,,,0.00,meteobridge,2013-05-02 07:34:00,
2013-05-02 03:39:00,38.7,38.5,30.38,South,180,0.7,1.6,99,0.00,,,0.00,meteobridge,2013-05-02 07:39:00,
2013-05-02 03:44:00,38.8,38.7,30.37,South,180,0.7,1.6,99,0.00,,,0.00,meteobridge,2013-05-02 07:44:00,
2013-05-02 03:49:00,39.0,38.8,30.37,South,180,0.7,1.6,99,0.00,,,0.00,meteobridge,2013-05-02 07:49:00,
2013-05-02 03:55:00,39.2,39.0,30.37,SW,225,0.0,0.7,99,0.00,,,0.00,meteobridge,2013-05-02 07:55:00,
2013-05-02 04:00:00,39.4,39.2,30.37,South,180,0.0,0.0,99,0.00,,,0.00,meteobridge,2013-05-02 08:00:00,
2013-05-02 04:05:00,39.4,39.2,30.37,South,180,0.0,0.0,99,0.00,,,0.00,meteobridge,2013-05-02 08:05:00,
2013-05-02 04:10:00,39.4,39.2,30.37,NE,45,0.0,0.0,99,0.00,,,0.00,meteobridge,2013-05-02 08:10:00,
2013-05-02 04:15:00,39.4,39.2,30.37,South,180,0.0,0.0,99,0.00,,,0.00,meteobridge,2013-05-02 08:15:00,
2013-05-02 04:20:00,39.6,39.4,30.37,NE,45,0.0,0.0,99,0.00,,,0.00,meteobridge,2013-05-02 08:20:00,
2013-05-02 04:26:00,39.6,39.4,30.37,SW,225,0.0,0.0,99,0.00,,,0.00,meteobridge,2013-05-02 08:26:00,
2013-05-02 04:31:00,39.7,39.6,30.37,SW,225,0.0,0.0,99,0.00,,,0.00,meteobridge,2013-05-02 08:31:00,
2013-05-02 04:36:00,39.7,39.6,30.37,SW,225,1.6,1.6,99,0.00,,,0.00,meteobridge,2013-05-02 08:36:00,
2013-05-02 04:41:00,40.3,40.1,30.37,SW,225,0.0,0.7,99,0.00,,,0.00,meteobridge,2013-05-02 08:41:00,
2013-05-02 04:46:00,40.6,40.5,30.37,NE,45,0.0,0.0,99,0.00,,,0.00,meteobridge,2013-05-02 08:46:00,
2013-05-02 04:51:00,41.0,40.8,30.37,NE,45,0.0,0.0,99,0.00,,,0.00,meteobridge,2013-05-02 08:51:00,
2013-05-02 04:57:00,41.4,41.2,30.37,South,180,0.7,0.7,99,0.00,,,0.00,meteobridge,2013-05-02 08:57:00,
2013-05-02 05:02:00,41.7,41.5,30.37,South,180,0.0,0.0,99,0.00,,,0.00,meteobridge,2013-05-02 09:02:00,
2013-05-02 05:07:00,41.7,41.5,30.37,NE,45,0.0,0.0,99,0.00,,,0.00,meteobridge,2013-05-02 09:07:00,
2013-05-02 05:12:00,41.7,41.5,30.37,NE,45,0.0,0.0,99,0.00,,,0.00,meteobridge,2013-05-02 09:12:00,
2013-05-02 05:17:00,41.7,41.5,30.37,NE,45,0.0,0.0,99,0.00,,,0.00,meteobridge,2013-05-02 09:17:00,
2013-05-02 05:22:00,41.7,41.5,30.37,NE,45,0.0,0.0,99,0.00,,,0.00,meteobridge,2013-05-02 09:22:00,
2013-05-02 05:28:00,41.7,41.5,30.37,East,90,0.0,0.0,99,0.00,,,0.00,meteobridge,2013-05-02 09:28:00,
2013-05-02 05:33:00,41.9,41.7,30.36,East,90,0.0,0.0,99,0.00,,,0.00,meteobridge,2013-05-02 09:33:00,
2013-05-02 05:38:00,42.1,41.9,30.37,East,90,0.0,0.0,99,0.00,,,0.00,meteobridge,2013-05-02 09:38:00,
2013-05-02 05:43:00,42.4,42.3,30.36,East,90,0.0,0.0,99,0.00,,,0.00,meteobridge,2013-05-02 09:43:00,
2013-05-02 05:48:00,42.4,42.3,30.36,East,90,0.0,0.0,99,0.00,,,0.00,meteobridge,2013-05-02 09:48:00,
2013-05-02 05:53:00,42.3,42.1,30.36,East,90,0.0,0.0,99,0.00,,,0.00,meteobridge,2013-05-02 09:53:00,
2013-05-02 05:58:00,42.1,41.9,30.36,North,0,0.0,0.7,99,0.00,,,0.00,meteobridge,2013-05-02 09:58:00,
2013-05-02 06:04:00,42.1,41.9,30.36,North,0,0.0,0.0,99,0.00,,,0.00,meteobridge,2013-05-02 10:04:00,
2013-05-02 06:09:00,42.3,42.1,30.36,North,0,0.0,0.0,99,0.00,,,0.00,meteobridge,2013-05-02 10:09:00,
2013-05-02 06:14:00,42.3,42.1,30.36,North,0,0.0,0.0,99,0.00,,,0.00,meteobridge,2013-05-02 10:14:00,
2013-05-02 06:19:00,42.4,42.3,30.36,North,0,0.0,0.0,99,0.00,,,0.00,meteobridge,2013-05-02 10:19:00,
2013-05-02 06:24:00,43.3,42.8,30.36,North,0,0.0,0.0,98,0.00,,,0.00,meteobridge,2013-05-02 10:24:00,
2013-05-02 06:29:00,44.2,43.7,30.36,North,0,0.0,0.0,98,0.00,,,0.00,meteobridge,2013-05-02 10:29:00,
2013-05-02 06:35:00,45.1,44.4,30.36,SE,135,0.0,0.0,97,0.00,,,0.00,meteobridge,2013-05-02 10:35:00,
2013-05-02 06:40:00,45.0,44.2,30.36,South,180,0.0,0.0,97,0.00,,,0.00,meteobridge,2013-05-02 10:40:00,
2013-05-02 06:45:00,45.1,44.4,30.36,South,180,0.0,0.0,97,0.00,,,0.00,meteobridge,2013-05-02 10:45:00,
2013-05-02 06:50:00,45.5,44.8,30.36,South,180,0.0,0.0,97,0.00,,,0.00,meteobridge,2013-05-02 10:50:00,
2013-05-02 06:55:00,46.2,45.5,30.37,SE,135,0.0,0.0,97,0.00,,,0.00,meteobridge,2013-05-02 10:55:00,
2013-05-02 07:00:00,47.1,46.9,30.37,SE,135,0.0,0.0,99,0.00,,,0.00,meteobridge,2013-05-02 11:00:00,
2013-05-02 07:06:00,48.4,48.2,30.37,SE,135,0.0,0.0,99,0.00,,,0.00,meteobridge,2013-05-02 11:06:00,
2013-05-02 07:11:00,50.9,50.5,30.37,South,180,0.0,0.0,99,0.00,,,0.00,meteobridge,2013-05-02 11:11:00,
2013-05-02 07:16:00,52.3,51.8,30.37,South,180,2.2,3.1,98,0.00,,,0.00,meteobridge,2013-05-02 11:16:00,
2013-05-02 07:21:00,52.9,52.3,30.37,South,180,2.2,2.2,98,0.00,,,0.00,meteobridge,2013-05-02 11:21:00,
2013-05-02 07:26:00,53.1,52.5,30.37,South,180,0.7,1.6,98,0.00,,,0.00,meteobridge,2013-05-02 11:26:00,
2013-05-02 07:31:00,54.0,53.1,30.37,SE,135,1.6,2.2,97,0.00,,,0.00,meteobridge,2013-05-02 11:31:00,
2013-05-02 07:37:00,54.3,53.4,30.37,NE,45,1.6,3.1,97,0.00,,,0.00,meteobridge,2013-05-02 11:37:00,
2013-05-02 07:42:00,54.7,53.6,30.38,East,90,1.6,1.6,96,0.00,,,0.00,meteobridge,2013-05-02 11:42:00,
2013-05-02 07:47:00,56.1,54.5,30.37,East,90,1.6,1.6,94,0.00,,,0.00,meteobridge,2013-05-02 11:47:00,
2013-05-02 07:52:00,57.2,53.1,30.38,NE,45,3.8,3.8,86,0.00,,,0.00,meteobridge,2013-05-02 11:52:00,
2013-05-02 07:57:00,58.3,52.5,30.38,South,180,0.7,0.7,81,0.00,,,0.00,meteobridge,2013-05-02 11:57:00,
2013-05-02 08:02:00,59.2,52.0,30.38,South,180,1.6,2.2,77,0.00,,,0.00,meteobridge,2013-05-02 12:02:00,
2013-05-02 08:08:00,59.7,51.8,30.38,South,180,3.1,3.1,75,0.00,,,0.00,meteobridge,2013-05-02 12:08:00,
2013-05-02 08:13:00,59.9,51.3,30.38,South,180,1.6,3.8,73,0.00,,,0.00,meteobridge,2013-05-02 12:13:00,
2013-05-02 08:18:00,60.4,51.1,30.38,South,180,3.1,3.1,71,0.00,,,0.00,meteobridge,2013-05-02 12:18:00,
2013-05-02 08:23:00,60.8,50.2,30.38,SSE,158,3.8,3.8,68,0.00,,,0.00,meteobridge,2013-05-02 12:23:00,
2013-05-02 08:28:00,60.8,49.8,30.38,South,180,3.1,4.5,67,0.00,,,0.00,meteobridge,2013-05-02 12:28:00,
2013-05-02 08:33:00,61.0,49.1,30.38,SE,135,2.2,2.2,65,0.00,,,0.00,meteobridge,2013-05-02 12:33:00,
2013-05-02 08:39:00,62.1,49.8,30.38,SW,225,2.2,3.8,64,0.00,,,0.00,meteobridge,2013-05-02 12:39:00,
2013-05-02 08:44:00,63.1,50.4,30.38,SE,135,3.1,3.1,63,0.00,,,0.00,meteobridge,2013-05-02 12:44:00,
2013-05-02 08:49:00,64.2,50.9,30.38,NE,45,3.1,3.1,62,0.00,,,0.00,meteobridge,2013-05-02 12:49:00,
2013-05-02 08:54:00,64.4,49.3,30.38,South,180,3.1,3.1,58,0.00,,,0.00,meteobridge,2013-05-02 12:54:00,
2013-05-02 08:59:00,64.6,48.9,30.37,SE,135,2.2,3.8,57,0.00,,,0.00,meteobridge,2013-05-02 12:59:00,
2013-05-02 09:04:00,64.6,49.5,30.38,NE,45,1.6,3.1,58,0.00,,,0.00,meteobridge,2013-05-02 13:04:00,
2013-05-02 09:10:00,64.8,49.1,30.38,South,180,3.1,3.8,57,0.00,,,0.00,meteobridge,2013-05-02 13:10:00,
2013-05-02 09:15:00,63.9,49.3,30.38,SE,135,2.2,3.1,59,0.00,,,0.00,meteobridge,2013-05-02 13:15:00,
2013-05-02 09:20:00,65.1,50.0,30.37,NE,45,3.8,3.8,58,0.00,,,0.00,meteobridge,2013-05-02 13:20:00,
2013-05-02 09:25:00,63.5,48.9,30.37,South,180,3.8,4.5,59,0.00,,,0.00,meteobridge,2013-05-02 13:25:00,
2013-05-02 09:30:00,63.7,48.6,30.38,South,180,1.6,3.8,58,0.00,,,0.00,meteobridge,2013-05-02 13:30:00,
2013-05-02 09:35:00,65.5,49.8,30.38,South,180,3.1,3.8,57,0.00,,,0.00,meteobridge,2013-05-02 13:35:00,
2013-05-02 09:41:00,66.9,48.7,30.38,NE,45,3.1,3.1,52,0.00,,,0.00,meteobridge,2013-05-02 13:41:00,
2013-05-02 09:46:00,67.3,48.6,30.37,NE,45,3.8,3.8,51,0.00,,,0.00,meteobridge,2013-05-02 13:46:00,
2013-05-02 09:51:00,67.1,45.7,30.37,South,180,3.8,3.8,46,0.00,,,0.00,meteobridge,2013-05-02 13:51:00,
2013-05-02 09:56:00,67.6,48.4,30.37,SE,135,3.1,3.1,50,0.00,,,0.00,meteobridge,2013-05-02 13:56:00,
2013-05-02 10:01:00,67.8,45.1,30.37,SE,135,2.2,3.8,44,0.00,,,0.00,meteobridge,2013-05-02 14:01:00,
2013-05-02 10:06:00,68.5,42.6,30.37,SE,135,3.1,4.5,39,0.00,,,0.00,meteobridge,2013-05-02 14:06:00,
2013-05-02 10:11:00,68.0,44.6,30.37,West,270,3.1,3.8,43,0.00,,,0.00,meteobridge,2013-05-02 14:11:00,
2013-05-02 10:17:00,68.5,41.2,30.37,South,180,4.5,4.5,37,0.00,,,0.00,meteobridge,2013-05-02 14:17:00,
2013-05-02 10:22:00,68.7,41.4,30.37,South,180,3.1,3.1,37,0.00,,,0.00,meteobridge,2013-05-02 14:22:00,
2013-05-02 10:27:00,68.7,39.9,30.37,South,180,3.1,4.5,35,0.00,,,0.00,meteobridge,2013-05-02 14:27:00,
2013-05-02 10:32:00,68.4,39.6,30.37,SE,135,3.1,3.1,35,0.00,,,0.00,meteobridge,2013-05-02 14:32:00,
2013-05-02 10:37:00,67.6,39.7,30.37,SW,225,2.2,3.8,36,0.00,,,0.00,meteobridge,2013-05-02 14:37:00,
2013-05-02 10:42:00,68.5,39.0,30.37,SE,135,1.6,3.1,34,0.00,,,0.00,meteobridge,2013-05-02 14:42:00,
2013-05-02 10:48:00,69.8,40.1,30.37,South,180,3.1,3.8,34,0.00,,,0.00,meteobridge,2013-05-02 14:48:00,
2013-05-02 10:53:00,70.7,35.1,30.37,SE,135,3.1,5.4,27,0.00,,,0.00,meteobridge,2013-05-02 14:53:00,
2013-05-02 10:58:00,71.1,36.3,30.37,SE,135,4.5,4.5,28,0.00,,,0.00,meteobridge,2013-05-02 14:58:00,
2013-05-02 11:03:00,70.7,34.2,30.37,SE,135,4.5,4.5,26,0.00,,,0.00,meteobridge,2013-05-02 15:03:00,
2013-05-02 11:08:00,71.8,32.0,30.37,South,180,3.1,3.8,23,0.00,,,0.00,meteobridge,2013-05-02 15:08:00,
2013-05-02 11:13:00,72.7,33.8,30.37,NNE,23,3.8,3.8,24,0.00,,,0.00,meteobridge,2013-05-02 15:13:00,
2013-05-02 11:19:00,72.5,33.6,30.37,SE,135,2.2,3.8,24,0.00,,,0.00,meteobridge,2013-05-02 15:19:00,
2013-05-02 11:24:00,72.1,32.4,30.37,South,180,2.2,3.8,23,0.00,,,0.00,meteobridge,2013-05-02 15:24:00,
2013-05-02 11:29:00,72.0,29.8,30.36,SW,225,4.5,4.5,21,0.00,,,0.00,meteobridge,2013-05-02 15:29:00,
2013-05-02 11:34:00,71.6,29.7,30.36,SE,135,4.5,4.5,21,0.00,,,0.00,meteobridge,2013-05-02 15:34:00,
2013-05-02 11:39:00,72.0,31.1,30.36,South,180,4.5,4.5,22,0.00,,,0.00,meteobridge,2013-05-02 15:39:00,
2013-05-02 11:44:00,71.8,29.7,30.36,South,180,3.8,3.8,21,0.00,,,0.00,meteobridge,2013-05-02 15:44:00,
2013-05-02 11:50:00,72.5,33.6,30.36,NE,45,3.8,3.8,24,0.00,,,0.00,meteobridge,2013-05-02 15:50:00,
2013-05-02 11:55:00,72.0,34.2,30.36,South,180,3.8,6.9,25,0.00,,,0.00,meteobridge,2013-05-02 15:55:00,
2013-05-02 12:00:00,72.0,34.2,30.36,South,180,3.1,5.4,25,0.00,,,0.00,meteobridge,2013-05-02 16:00:00,
2013-05-02 12:05:00,72.5,37.6,30.35,SE,135,3.8,3.8,28,0.00,,,0.00,meteobridge,2013-05-02 16:05:00,
2013-05-02 12:10:00,72.1,40.6,30.35,SW,225,3.8,4.5,32,0.00,,,0.00,meteobridge,2013-05-02 16:10:00,
2013-05-02 12:15:00,73.2,40.8,30.35,SE,135,4.5,4.5,31,0.00,,,0.00,meteobridge,2013-05-02 16:15:00,
2013-05-02 12:21:00,72.5,40.1,30.35,South,180,3.1,4.5,31,0.00,,,0.00,meteobridge,2013-05-02 16:21:00,
2013-05-02 12:26:00,73.0,40.6,30.35,SE,135,3.1,5.4,31,0.00,,,0.00,meteobridge,2013-05-02 16:26:00,
2013-05-02 12:31:00,72.7,40.3,30.35,SE,135,3.1,3.8,31,0.00,,,0.00,meteobridge,2013-05-02 16:31:00,
2013-05-02 12:36:00,73.0,40.6,30.35,South,180,3.8,6.0,31,0.00,,,0.00,meteobridge,2013-05-02 16:36:00,
2013-05-02 12:41:00,73.9,40.5,30.35,South,180,5.4,5.4,30,0.00,,,0.00,meteobridge,2013-05-02 16:41:00,
2013-05-02 12:46:00,73.6,41.0,30.35,SW,225,4.5,4.5,31,0.00,,,0.00,meteobridge,2013-05-02 16:46:00,
2013-05-02 12:52:00,73.9,40.5,30.34,East,90,3.1,5.4,30,0.00,,,0.00,meteobridge,2013-05-02 16:52:00,
2013-05-02 12:57:00,74.3,39.0,30.35,SE,135,4.5,4.5,28,0.00,,,0.00,meteobridge,2013-05-02 16:57:00,
2013-05-02 13:02:00,74.7,37.6,30.34,SE,135,3.1,3.1,26,0.00,,,0.00,meteobridge,2013-05-02 17:02:00,
2013-05-02 13:07:00,75.4,36.1,30.34,SW,225,3.8,3.8,24,0.00,,,0.00,meteobridge,2013-05-02 17:07:00,
2013-05-02 13:12:00,74.8,37.6,30.34,SW,225,5.4,6.0,26,0.00,,,0.00,meteobridge,2013-05-02 17:12:00,
2013-05-02 13:17:00,75.4,36.1,30.34,NW,315,1.6,3.1,24,0.00,,,0.00,meteobridge,2013-05-02 17:17:00,
2013-05-02 13:23:00,77.0,37.4,30.34,SW,225,3.8,3.8,24,0.00,,,0.00,meteobridge,2013-05-02 17:23:00,
2013-05-02 13:28:00,77.0,36.3,30.34,North,0,2.2,3.1,23,0.00,,,0.00,meteobridge,2013-05-02 17:28:00,
2013-05-02 13:33:00,76.6,38.1,30.34,North,0,2.2,3.8,25,0.00,,,0.00,meteobridge,2013-05-02 17:33:00,
2013-05-02 13:38:00,76.6,37.2,30.34,NW,315,2.2,3.8,24,0.00,,,0.00,meteobridge,2013-05-02 17:38:00,
2013-05-02 13:43:00,77.2,34.2,30.34,NW,315,1.6,3.1,21,0.00,,,0.00,meteobridge,2013-05-02 17:43:00,
2013-05-02 13:48:00,78.1,36.1,30.35,West,270,2.2,3.1,22,0.00,,,0.00,meteobridge,2013-05-02 17:48:00,
2013-05-02 13:54:00,77.4,31.8,30.34,NW,315,3.1,3.1,19,0.00,,,0.00,meteobridge,2013-05-02 17:54:00,
2013-05-02 13:59:00,76.5,36.0,30.35,West,270,3.1,3.1,23,0.00,,,0.00,meteobridge,2013-05-02 17:59:00,
2013-05-02 14:04:00,77.0,36.3,30.34,NE,45,2.2,3.8,23,0.00,,,0.00,meteobridge,2013-05-02 18:04:00,
2013-05-02 14:09:00,77.9,37.0,30.34,South,180,8.3,8.3,23,0.00,,,0.00,meteobridge,2013-05-02 18:09:00,
2013-05-02 14:14:00,77.2,37.6,30.35,SW,225,3.8,3.8,24,0.00,,,0.00,meteobridge,2013-05-02 18:14:00,
2013-05-02 14:19:00,76.1,36.7,30.35,North,0,4.5,6.0,24,0.00,,,0.00,meteobridge,2013-05-02 18:19:00,
2013-05-02 14:24:00,74.5,37.4,30.35,North,0,3.8,6.0,26,0.00,,,0.00,meteobridge,2013-05-02 18:24:00,
2013-05-02 14:30:00,73.2,39.9,30.35,West,270,3.8,3.8,30,0.00,,,0.00,meteobridge,2013-05-02 18:30:00,
2013-05-02 14:35:00,73.9,38.8,30.34,SW,225,5.4,5.4,28,0.00,,,0.00,meteobridge,2013-05-02 18:35:00,
2013-05-02 14:40:00,73.4,39.2,30.34,West,270,3.8,4.5,29,0.00,,,0.00,meteobridge,2013-05-02 18:40:00,
2013-05-02 14:45:00,72.5,43.3,30.35,WNW,293,3.8,6.0,35,0.00,,,0.00,meteobridge,2013-05-02 18:45:00,
2013-05-02 14:50:00,69.8,45.7,30.35,West,270,5.4,6.0,42,0.00,,,0.00,meteobridge,2013-05-02 18:50:00,
2013-05-02 14:55:00,68.4,47.8,30.35,West,270,5.4,5.4,48,0.00,,,0.00,meteobridge,2013-05-02 18:55:00,
2013-05-02 15:01:00,68.9,48.4,30.35,SW,225,4.5,7.6,48,0.00,,,0.00,meteobridge,2013-05-02 19:01:00,
2013-05-02 15:06:00,66.7,47.5,30.34,SW,225,4.5,6.9,50,0.00,,,0.00,meteobridge,2013-05-02 19:06:00,
2013-05-02 15:11:00,64.6,48.0,30.34,North,0,5.4,5.4,55,0.00,,,0.00,meteobridge,2013-05-02 19:11:00,
2013-05-02 15:16:00,62.6,47.1,30.35,West,270,5.4,6.0,57,0.00,,,0.00,meteobridge,2013-05-02 19:16:00,
2013-05-02 15:21:00,60.8,48.2,30.35,West,270,5.4,5.4,63,0.00,,,0.00,meteobridge,2013-05-02 19:21:00,
2013-05-02 15:26:00,60.3,48.4,30.35,West,270,6.9,6.9,65,0.00,,,0.00,meteobridge,2013-05-02 19:26:00,
2013-05-02 15:32:00,61.7,49.5,30.36,SW,225,6.0,6.0,64,0.00,,,0.00,meteobridge,2013-05-02 19:32:00,
2013-05-02 15:37:00,61.2,48.9,30.35,West,270,4.5,6.0,64,0.00,,,0.00,meteobridge,2013-05-02 19:37:00,
2013-05-02 15:42:00,60.4,49.1,30.36,West,270,4.5,8.3,66,0.00,,,0.00,meteobridge,2013-05-02 19:42:00,
2013-05-02 15:47:00,61.5,49.6,30.35,West,270,6.0,6.0,65,0.00,,,0.00,meteobridge,2013-05-02 19:47:00,
2013-05-02 15:52:00,62.6,48.9,30.35,NW,315,5.4,6.9,61,0.00,,,0.00,meteobridge,2013-05-02 19:52:00,
2013-05-02 15:57:00,61.7,48.6,30.36,SW,225,4.5,9.8,62,0.00,,,0.00,meteobridge,2013-05-02 19:57:00,
2013-05-02 16:03:00,60.8,48.2,30.35,West,270,6.0,6.0,63,0.00,,,0.00,meteobridge,2013-05-02 20:03:00,
2013-05-02 16:08:00,60.3,48.0,30.35,West,270,4.5,5.4,64,0.00,,,0.00,meteobridge,2013-05-02 20:08:00,
2013-05-02 16:13:00,60.8,48.2,30.35,West,270,5.4,5.4,63,0.00,,,0.00,meteobridge,2013-05-02 20:13:00,
2013-05-02 16:18:00,59.5,47.3,30.35,SW,225,6.0,6.0,64,0.00,,,0.00,meteobridge,2013-05-02 20:18:00,
2013-05-02 16:23:00,59.9,48.0,30.35,SSW,203,5.4,6.9,65,0.00,,,0.00,meteobridge,2013-05-02 20:23:00,
2013-05-02 16:28:00,60.1,47.5,30.35,SW,225,3.8,5.4,63,0.00,,,0.00,meteobridge,2013-05-02 20:28:00,
2013-05-02 16:34:00,59.4,46.8,30.35,SW,225,3.8,4.5,63,0.00,,,0.00,meteobridge,2013-05-02 20:34:00,
2013-05-02 16:39:00,57.9,46.2,30.35,NW,315,3.8,5.4,65,0.00,,,0.00,meteobridge,2013-05-02 20:39:00,
2013-05-02 16:44:00,56.8,46.8,30.35,NW,315,3.1,6.0,69,0.00,,,0.00,meteobridge,2013-05-02 20:44:00,
2013-05-02 16:49:00,56.1,47.7,30.35,SW,225,4.5,6.9,73,0.00,,,0.00,meteobridge,2013-05-02 20:49:00,
2013-05-02 16:54:00,55.8,47.7,30.35,SW,225,6.0,6.0,74,0.00,,,0.00,meteobridge,2013-05-02 20:54:00,
2013-05-02 16:59:00,55.6,47.5,30.35,SW,225,3.1,3.1,74,0.00,,,0.00,meteobridge,2013-05-02 20:59:00,
2013-05-02 17:05:00,55.6,47.8,30.35,SW,225,4.5,6.0,75,0.00,,,0.00,meteobridge,2013-05-02 21:05:00,
2013-05-02 17:10:00,55.2,47.1,30.35,SW,225,8.3,8.3,74,0.00,,,0.00,meteobridge,2013-05-02 21:10:00,
2013-05-02 17:15:00,53.4,46.8,30.35,NW,315,3.8,3.8,78,0.00,,,0.00,meteobridge,2013-05-02 21:15:00,
2013-05-02 17:20:00,52.9,46.9,30.35,SW,225,5.4,5.4,80,0.00,,,0.00,meteobridge,2013-05-02 21:20:00,
2013-05-02 17:25:00,52.2,46.8,30.36,West,270,3.8,6.9,82,0.00,,,0.00,meteobridge,2013-05-02 21:25:00,
2013-05-02 17:30:00,51.8,46.8,30.36,West,270,6.9,6.9,83,0.00,,,0.00,meteobridge,2013-05-02 21:30:00,
2013-05-02 17:36:00,51.6,46.9,30.36,West,270,3.8,5.4,84,0.00,,,0.00,meteobridge,2013-05-02 21:36:00,
2013-05-02 17:41:00,51.4,46.8,30.36,SW,225,3.8,6.0,84,0.00,,,0.00,meteobridge,2013-05-02 21:41:00,
2013-05-02 17:46:00,51.4,46.8,30.36,WSW,248,4.5,4.5,84,0.00,,,0.00,meteobridge,2013-05-02 21:46:00,
2013-05-02 17:51:00,51.3,46.6,30.37,South,180,3.1,3.1,84,0.00,,,0.00,meteobridge,2013-05-02 21:51:00,
2013-05-02 17:56:00,51.3,46.6,30.37,NW,315,3.1,4.5,84,0.00,,,0.00,meteobridge,2013-05-02 21:56:00,
2013-05-02 18:01:00,50.9,46.2,30.37,West,270,6.9,8.3,84,0.00,,,0.00,meteobridge,2013-05-02 22:01:00,
2013-05-02 18:06:00,50.4,45.7,30.37,West,270,5.4,5.4,84,0.00,,,0.00,meteobridge,2013-05-02 22:06:00,
2013-05-02 18:12:00,50.2,45.9,30.37,NW,315,4.5,5.4,85,0.00,,,0.00,meteobridge,2013-05-02 22:12:00,
2013-05-02 18:17:00,50.0,46.0,30.37,NW,315,3.8,7.6,86,0.00,,,0.00,meteobridge,2013-05-02 22:17:00,
2013-05-02 18:22:00,49.6,45.9,30.36,West,270,3.8,5.4,87,0.00,,,0.00,meteobridge,2013-05-02 22:22:00,
2013-05-02 18:27:00,49.5,45.5,30.36,NE,45,5.4,5.4,86,0.00,,,0.00,meteobridge,2013-05-02 22:27:00,
2013-05-02 18:32:00,49.3,45.3,30.37,SW,225,4.5,4.5,86,0.00,,,0.00,meteobridge,2013-05-02 22:32:00,
2013-05-02 18:37:00,49.5,45.7,30.37,WSW,248,4.5,5.4,87,0.00,,,0.00,meteobridge,2013-05-02 22:37:00,
2013-05-02 18:43:00,49.1,45.1,30.37,NW,315,4.5,5.4,86,0.00,,,0.00,meteobridge,2013-05-02 22:43:00,
2013-05-02 18:48:00,48.7,44.8,30.37,West,270,4.5,6.9,86,0.00,,,0.00,meteobridge,2013-05-02 22:48:00,
2013-05-02 18:53:00,48.7,44.8,30.37,West,270,6.0,6.0,86,0.00,,,0.00,meteobridge,2013-05-02 22:53:00,
2013-05-02 18:58:00,48.6,44.6,30.37,NW,315,8.3,8.3,86,0.00,,,0.00,meteobridge,2013-05-02 22:58:00,
2013-05-02 19:03:00,48.4,44.8,30.37,SW,225,5.4,5.4,87,0.00,,,0.00,meteobridge,2013-05-02 23:03:00,
2013-05-02 19:08:00,48.4,44.8,30.37,West,270,4.5,4.5,87,0.00,,,0.00,meteobridge,2013-05-02 23:08:00,
2013-05-02 19:14:00,48.2,44.6,30.38,SW,225,3.1,4.5,87,0.00,,,0.00,meteobridge,2013-05-02 23:14:00,
2013-05-02 19:19:00,48.2,44.8,30.38,WSW,248,3.8,3.8,88,0.00,,,0.00,meteobridge,2013-05-02 23:19:00,
2013-05-02 19:24:00,48.0,45.0,30.38,West,270,3.8,5.4,89,0.00,,,0.00,meteobridge,2013-05-02 23:24:00,
2013-05-02 19:29:00,47.8,45.0,30.39,North,0,3.8,5.4,90,0.00,,,0.00,meteobridge,2013-05-02 23:29:00,
2013-05-02 19:34:00,47.7,45.0,30.38,NW,315,3.1,5.4,90,0.00,,,0.00,meteobridge,2013-05-02 23:34:00,
2013-05-02 19:39:00,47.5,44.8,30.39,North,0,2.2,6.0,90,0.00,,,0.00,meteobridge,2013-05-02 23:39:00,
2013-05-02 19:45:00,47.3,44.6,30.39,West,270,3.1,3.8,90,0.00,,,0.00,meteobridge,2013-05-02 23:45:00,
2013-05-02 19:50:00,47.3,44.6,30.38,North,0,3.8,3.8,90,0.00,,,0.00,meteobridge,2013-05-02 23:50:00,
2013-05-02 19:55:00,47.1,44.6,30.38,West,270,3.1,3.8,91,0.00,,,0.00,meteobridge,2013-05-02 23:55:00,
2013-05-02 20:00:00,47.1,44.6,30.38,North,0,3.8,3.8,91,0.00,,,0.00,meteobridge,2013-05-03 00:00:00,
2013-05-02 20:05:00,47.1,45.0,30.39,West,270,1.6,2.2,92,0.00,,,0.00,meteobridge,2013-05-03 00:05:00,
2013-05-02 20:10:00,47.1,45.0,30.39,West,270,1.6,5.4,92,0.00,,,0.00,meteobridge,2013-05-03 00:10:00,
2013-05-02 20:16:00,46.9,44.8,30.40,West,270,2.2,3.1,92,0.00,,,0.00,meteobridge,2013-05-03 00:16:00,
2013-05-02 20:21:00,46.8,44.6,30.40,North,0,3.1,3.1,92,0.00,,,0.00,meteobridge,2013-05-03 00:21:00,
2013-05-02 20:26:00,46.8,44.8,30.40,NW,315,3.1,3.1,93,0.00,,,0.00,meteobridge,2013-05-03 00:26:00,
2013-05-02 20:31:00,46.6,44.6,30.40,North,0,0.0,2.2,93,0.00,,,0.00,meteobridge,2013-05-03 00:31:00,
2013-05-02 20:36:00,46.6,44.6,30.40,West,270,0.7,3.8,93,0.00,,,0.00,meteobridge,2013-05-03 00:36:00,
2013-05-02 20:41:00,46.4,44.4,30.40,NW,315,1.6,1.6,93,0.00,,,0.00,meteobridge,2013-05-03 00:41:00,
2013-05-02 20:47:00,46.2,44.2,30.40,West,270,1.6,2.2,93,0.00,,,0.00,meteobridge,2013-05-03 00:47:00,
2013-05-02 20:52:00,46.0,44.1,30.40,West,270,0.0,1.6,93,0.00,,,0.00,meteobridge,2013-05-03 00:52:00,
2013-05-02 20:57:00,45.9,43.9,30.40,NW,315,0.0,0.7,93,0.00,,,0.00,meteobridge,2013-05-03 00:57:00,
2013-05-02 21:02:00,45.5,43.5,30.40,West,270,0.7,1.6,93,0.00,,,0.00,meteobridge,2013-05-03 01:02:00,
2013-05-02 21:07:00,45.3,43.3,30.40,West,270,0.0,0.0,93,0.00,,,0.00,meteobridge,2013-05-03 01:07:00,
2013-05-02 21:12:00,45.0,43.0,30.40,West,270,0.0,0.0,93,0.00,,,0.00,meteobridge,2013-05-03 01:12:00,
2013-05-02 21:18:00,44.6,42.6,30.40,West,270,0.0,0.0,93,0.00,,,0.00,meteobridge,2013-05-03 01:18:00,
2013-05-02 21:23:00,44.2,42.6,30.40,West,270,0.0,0.0,94,0.00,,,0.00,meteobridge,2013-05-03 01:23:00,
2013-05-02 21:28:00,43.9,42.3,30.40,West,270,0.0,0.0,94,0.00,,,0.00,meteobridge,2013-05-03 01:28:00,
2013-05-02 21:33:00,43.7,42.1,30.40,SE,135,0.0,0.0,94,0.00,,,0.00,meteobridge,2013-05-03 01:33:00,
2013-05-02 21:38:00,43.3,41.7,30.40,SE,135,0.0,0.0,94,0.00,,,0.00,meteobridge,2013-05-03 01:38:00,
2013-05-02 21:43:00,43.2,41.5,30.40,SE,135,0.0,0.0,94,0.00,,,0.00,meteobridge,2013-05-03 01:43:00,
2013-05-02 21:49:00,42.8,41.2,30.40,SW,225,0.0,0.0,94,0.00,,,0.00,meteobridge,2013-05-03 01:49:00,
2013-05-02 21:54:00,42.8,41.2,30.40,SW,225,0.0,0.0,94,0.00,,,0.00,meteobridge,2013-05-03 01:54:00,
2013-05-02 21:59:00,42.4,41.2,30.40,SW,225,0.0,0.0,95,0.00,,,0.00,meteobridge,2013-05-03 01:59:00,
2013-05-02 22:04:00,42.3,41.0,30.40,East,90,0.0,0.0,95,0.00,,,0.00,meteobridge,2013-05-03 02:04:00,
2013-05-02 22:09:00,41.9,40.6,30.40,NE,45,0.0,0.0,95,0.00,,,0.00,meteobridge,2013-05-03 02:09:00,
2013-05-02 22:14:00,41.9,40.8,30.40,North,0,1.6,2.2,96,0.00,,,0.00,meteobridge,2013-05-03 02:14:00,
2013-05-02 22:19:00,41.9,40.8,30.40,East,90,0.7,2.2,96,0.00,,,0.00,meteobridge,2013-05-03 02:19:00,
2013-05-02 22:25:00,41.7,40.6,30.40,NW,315,2.2,2.2,96,0.00,,,0.00,meteobridge,2013-05-03 02:25:00,
2013-05-02 22:30:00,41.7,41.0,30.40,NW,315,0.7,1.6,97,0.00,,,0.00,meteobridge,2013-05-03 02:30:00,
2013-05-02 22:35:00,41.9,41.2,30.40,West,270,0.0,1.6,97,0.00,,,0.00,meteobridge,2013-05-03 02:35:00,
2013-05-02 22:40:00,41.9,41.2,30.39,North,0,0.0,1.6,97,0.00,,,0.00,meteobridge,2013-05-03 02:40:00,
2013-05-02 22:45:00,41.5,41.0,30.39,South,180,0.0,0.7,98,0.00,,,0.00,meteobridge,2013-05-03 02:45:00,
2013-05-02 22:50:00,41.5,40.8,30.39,South,180,0.0,0.0,97,0.00,,,0.00,meteobridge,2013-05-03 02:50:00,
2013-05-02 22:56:00,41.2,40.5,30.39,South,180,0.0,0.0,97,0.00,,,0.00,meteobridge,2013-05-03 02:56:00,
2013-05-02 23:01:00,41.2,40.5,30.39,South,180,0.0,0.0,97,0.00,,,0.00,meteobridge,2013-05-03 03:01:00,
2013-05-02 23:06:00,41.0,40.3,30.39,West,270,0.0,0.0,97,0.00,,,0.00,meteobridge,2013-05-03 03:06:00,
2013-05-02 23:11:00,41.0,40.3,30.39,West,270,0.0,0.0,97,0.00,,,0.00,meteobridge,2013-05-03 03:11:00,
2013-05-02 23:16:00,41.0,40.5,30.39,West,270,0.0,0.0,98,0.00,,,0.00,meteobridge,2013-05-03 03:16:00,
2013-05-02 23:21:00,41.4,40.8,30.39,SW,225,0.0,0.0,98,0.00,,,0.00,meteobridge,2013-05-03 03:21:00,
2013-05-02 23:27:00,41.5,41.0,30.40,West,270,0.0,0.0,98,0.00,,,0.00,meteobridge,2013-05-03 03:27:00,
2013-05-02 23:32:00,41.7,41.5,30.40,SW,225,0.0,0.0,99,0.00,,,0.00,meteobridge,2013-05-03 03:32:00,
2013-05-02 23:37:00,42.1,41.9,30.40,West,270,1.6,1.6,99,0.00,,,0.00,meteobridge,2013-05-03 03:37:00,
2013-05-02 23:42:00,42.4,42.3,30.40,West,270,2.2,3.1,99,0.00,,,0.00,meteobridge,2013-05-03 03:42:00,
2013-05-02 23:47:00,42.8,42.3,30.40,West,270,2.2,3.8,98,0.00,,,0.00,meteobridge,2013-05-03 03:47:00,
2013-05-02 23:52:00,43.2,42.6,30.40,North,0,1.6,2.2,98,0.00,,,0.00,meteobridge,2013-05-03 03:52:00,
2013-05-02 23:58:00,43.5,43.0,30.40,North,0,0.7,2.2,98,0.00,,,0.00,meteobridge,2013-05-03 03:58:00,